createdAt,value
2023-03-21T00:01:54.181Z,9.09
2023-03-21T00:04:25.550Z,9.03
2023-03-21T00:06:53.217Z,9.00
2023-03-21T00:09:21.171Z,9.05
2023-03-21T00:11:48.614Z,9.04
2023-03-21T00:14:18.820Z,8.96
2023-03-21T00:16:50.865Z,8.87
2023-03-21T00:19:23.402Z,8.89
2023-03-21T00:22:06.290Z,8.93
2023-03-21T00:24:35.950Z,8.84
2023-03-21T00:27:29.826Z,8.78
2023-03-21T00:29:51.198Z,8.83
2023-03-21T00:32:20.260Z,8.84
2023-03-21T00:35:00.374Z,8.80
2023-03-21T00:37:32.515Z,8.72
2023-03-21T00:39:59.892Z,8.67
2023-03-21T00:42:28.026Z,8.66
2023-03-21T00:44:55.415Z,8.60
2023-03-21T00:47:25.719Z,8.57
2023-03-21T00:49:53.266Z,8.54
2023-03-21T00:52:30.814Z,8.54
2023-03-21T00:55:07.325Z,8.55
2023-03-21T00:57:38.997Z,8.64
2023-03-21T01:00:10.696Z,8.62
2023-03-21T01:02:38.690Z,8.62
2023-03-21T01:05:06.422Z,8.61
2023-03-21T01:07:33.795Z,8.62
2023-03-21T01:10:01.379Z,8.58
2023-03-21T01:12:28.745Z,8.57
2023-03-21T01:14:56.551Z,8.52
2023-03-21T01:17:23.944Z,8.49
2023-03-21T01:19:52.455Z,8.47
2023-03-21T01:22:20.267Z,8.46
2023-03-21T01:24:55.156Z,8.44
2023-03-21T01:27:24.251Z,8.38
2023-03-21T01:29:51.627Z,8.34
2023-03-21T01:32:19.054Z,8.33
2023-03-21T01:34:46.392Z,8.19
2023-03-21T01:37:14.592Z,8.30
2023-03-21T01:39:41.946Z,8.23
2023-03-21T01:42:14.532Z,8.27
2023-03-21T01:45:01.810Z,8.23
2023-03-21T01:47:29.196Z,8.29
2023-03-21T01:50:03.548Z,8.34
2023-03-21T01:52:38.724Z,8.40
2023-03-21T01:55:14.089Z,8.38
2023-03-21T01:58:03.953Z,8.39
2023-03-21T02:00:33.586Z,8.39
2023-03-21T02:03:13.654Z,8.36
2023-03-21T02:06:01.138Z,8.39
2023-03-21T02:08:39.064Z,8.30
2023-03-21T02:11:08.367Z,8.27
2023-03-21T02:13:36.460Z,8.23
2023-03-21T02:16:20.357Z,8.23
2023-03-21T02:18:54.267Z,8.17
2023-03-21T02:22:32.563Z,8.10
2023-03-21T02:25:21.771Z,8.11
2023-03-21T02:27:53.988Z,8.08
2023-03-21T02:30:58.539Z,8.10
2023-03-21T02:33:56.730Z,8.11
2023-03-21T02:37:36.624Z,8.08
2023-03-21T02:41:10.063Z,8.05
2023-03-21T02:44:21.373Z,8.03
2023-03-21T02:47:06.023Z,7.98
2023-03-21T02:49:54.130Z,7.96
2023-03-21T02:52:38.684Z,7.91
2023-03-21T02:55:14.147Z,7.90
2023-03-21T02:57:44.513Z,7.82
2023-03-21T03:00:19.132Z,7.76
2023-03-21T03:02:48.812Z,7.66
2023-03-21T03:05:27.204Z,7.65
2023-03-21T03:08:47.538Z,7.61
2023-03-21T03:11:30.380Z,7.63
2023-03-21T03:13:58.175Z,7.61
2023-03-21T03:16:42.965Z,7.63
2023-03-21T03:19:17.419Z,7.64
2023-03-21T03:22:09.314Z,7.66
2023-03-21T03:24:53.849Z,7.74
2023-03-21T03:27:29.825Z,7.69
2023-03-21T03:30:01.125Z,7.66
2023-03-21T03:32:47.799Z,7.66
2023-03-21T03:35:18.564Z,7.64
2023-03-21T03:37:54.926Z,7.68
2023-03-21T03:40:29.711Z,7.64
2023-03-21T03:43:06.252Z,7.65
2023-03-21T03:45:46.094Z,7.61
2023-03-21T03:48:27.286Z,7.59
2023-03-21T03:51:36.414Z,7.48
2023-03-21T03:54:17.636Z,7.47
2023-03-21T03:56:45.240Z,7.47
2023-03-21T03:59:12.751Z,7.50
2023-03-21T04:01:41.417Z,7.53
2023-03-21T04:04:13.299Z,7.53
2023-03-21T04:06:41.544Z,7.55
2023-03-21T04:09:19.103Z,7.57
2023-03-21T04:11:47.853Z,7.57
2023-03-21T04:14:15.411Z,7.56
2023-03-21T04:16:42.977Z,7.54
2023-03-21T04:19:10.573Z,7.54
2023-03-21T04:21:37.940Z,7.55
2023-03-21T04:24:07.461Z,7.56
2023-03-21T04:26:36.029Z,7.56
2023-03-21T04:29:04.082Z,7.55
2023-03-21T04:31:34.065Z,7.60
2023-03-21T04:34:05.961Z,7.64
2023-03-21T04:36:39.119Z,7.66
2023-03-21T04:39:12.446Z,7.68
2023-03-21T04:41:41.641Z,7.68
2023-03-21T04:44:09.884Z,7.71
2023-03-21T04:46:37.694Z,7.68
2023-03-21T04:49:05.191Z,7.66
2023-03-21T04:51:32.926Z,7.62
2023-03-21T04:54:00.686Z,7.62
2023-03-21T04:56:33.810Z,7.61
2023-03-21T04:59:06.334Z,7.57
2023-03-21T05:01:34.116Z,7.57
2023-03-21T05:04:03.428Z,7.59
2023-03-21T05:06:32.161Z,7.55
2023-03-21T05:09:00.649Z,7.55
2023-03-21T05:11:32.395Z,7.50
2023-03-21T05:14:00.216Z,7.50
2023-03-21T05:16:30.746Z,7.51
2023-03-21T05:18:59.250Z,7.50
2023-03-21T05:21:29.640Z,7.47
2023-03-21T05:23:58.509Z,7.49
2023-03-21T05:26:25.985Z,7.48
2023-03-21T05:28:53.394Z,7.51
2023-03-21T05:31:21.803Z,7.51
2023-03-21T05:33:49.555Z,7.49
2023-03-21T05:36:17.006Z,7.48
2023-03-21T05:38:46.281Z,7.45
2023-03-21T05:41:19.199Z,7.41
2023-03-21T05:43:46.813Z,7.39
2023-03-21T05:46:14.503Z,7.37
2023-03-21T05:48:42.382Z,7.41
2023-03-21T05:51:09.719Z,7.44
2023-03-21T05:53:38.011Z,7.44
2023-03-21T05:56:07.946Z,7.48
2023-03-21T05:58:35.514Z,7.50
2023-03-21T06:01:02.916Z,7.54
2023-03-21T06:03:30.484Z,7.56
2023-03-21T06:05:58.046Z,7.59
2023-03-21T06:08:25.441Z,7.61
2023-03-21T06:10:52.849Z,7.68
2023-03-21T06:13:20.437Z,7.72
2023-03-21T06:15:47.988Z,7.88
2023-03-21T06:18:15.423Z,7.85
2023-03-21T06:20:42.826Z,7.93
2023-03-21T06:23:10.274Z,7.94
2023-03-21T06:25:37.966Z,8.03
2023-03-21T06:28:05.754Z,8.07
2023-03-21T06:30:33.167Z,8.22
2023-03-21T06:33:00.566Z,8.31
2023-03-21T06:35:27.979Z,8.18
2023-03-21T06:37:57.765Z,8.27
2023-03-21T06:40:25.110Z,8.37
2023-03-21T06:42:52.636Z,8.27
2023-03-21T06:45:20.117Z,8.36
2023-03-21T06:47:47.490Z,8.40
2023-03-21T06:50:15.104Z,8.48
2023-03-21T06:52:42.472Z,8.56
2023-03-21T06:55:09.916Z,8.62
2023-03-21T06:57:37.285Z,8.68
2023-03-21T07:00:05.595Z,8.74
2023-03-21T07:02:33.247Z,8.83
2023-03-21T07:05:00.634Z,8.87
2023-03-21T07:07:29.817Z,8.91
2023-03-21T07:09:57.209Z,8.99
2023-03-21T07:12:24.906Z,9.11
2023-03-21T07:14:52.277Z,9.22
2023-03-21T07:17:19.613Z,9.30
2023-03-21T07:19:46.987Z,9.37
2023-03-21T07:22:14.383Z,9.44
2023-03-21T07:24:41.767Z,9.59
2023-03-21T07:27:09.122Z,9.69
2023-03-21T07:29:36.509Z,9.83
2023-03-21T07:32:04.037Z,9.97
2023-03-21T07:34:33.273Z,10.10
2023-03-21T07:37:00.943Z,10.24
2023-03-21T07:39:29.603Z,10.39
2023-03-21T07:41:57.060Z,10.45
2023-03-21T07:44:24.892Z,10.37
2023-03-21T07:46:52.281Z,10.50
2023-03-21T07:49:19.644Z,10.36
2023-03-21T07:51:47.246Z,10.41
2023-03-21T07:54:14.635Z,10.51
2023-03-21T07:56:41.986Z,10.58
2023-03-21T07:59:09.994Z,10.61
2023-03-21T08:01:37.435Z,10.59
2023-03-21T08:04:04.982Z,10.72
2023-03-21T08:06:32.687Z,10.94
2023-03-21T08:09:00.320Z,10.98
2023-03-21T08:11:31.322Z,11.04
2023-03-21T08:13:59.925Z,11.19
2023-03-21T08:16:27.995Z,11.31
2023-03-21T08:18:55.329Z,11.47
2023-03-21T08:21:22.795Z,11.43
2023-03-21T08:23:50.318Z,11.44
2023-03-21T08:26:19.457Z,11.52
2023-03-21T08:28:46.977Z,11.58
2023-03-21T08:31:15.272Z,11.77
2023-03-21T08:33:42.650Z,11.75
2023-03-21T08:36:10.652Z,11.76
2023-03-21T08:38:38.095Z,11.72
2023-03-21T08:41:05.806Z,11.78
2023-03-21T08:43:33.247Z,11.90
2023-03-21T08:46:00.758Z,11.92
2023-03-21T08:48:28.193Z,11.97
2023-03-21T08:50:55.580Z,11.88
2023-03-21T08:53:22.978Z,12.04
2023-03-21T08:55:50.460Z,12.08
2023-03-21T08:58:18.224Z,12.17
2023-03-21T09:00:45.777Z,12.06
2023-03-21T09:03:13.466Z,12.33
2023-03-21T09:05:40.844Z,12.07
2023-03-21T09:08:08.439Z,12.09
2023-03-21T09:10:35.834Z,12.23
2023-03-21T09:13:02.908Z,12.46
2023-03-21T09:15:30.469Z,12.24
2023-03-21T09:18:13.853Z,12.23
2023-03-21T09:20:43.122Z,12.31
2023-03-21T09:23:11.716Z,12.30
2023-03-21T09:25:40.157Z,12.29
2023-03-21T09:28:08.143Z,12.70
2023-03-21T09:30:36.632Z,12.56
2023-03-21T09:33:09.846Z,12.91
2023-03-21T09:35:37.743Z,12.84
2023-03-21T09:38:05.632Z,12.80
2023-03-21T09:41:17.221Z,12.93
2023-03-21T09:44:14.373Z,12.94
2023-03-21T09:46:51.044Z,12.88
2023-03-21T09:50:07.504Z,12.95
2023-03-21T09:52:58.852Z,12.80
2023-03-21T09:55:37.873Z,12.82
2023-03-21T09:58:27.323Z,12.95
2023-03-21T10:01:22.493Z,12.95
2023-03-21T10:03:54.943Z,12.86
2023-03-21T10:06:32.959Z,12.89
2023-03-21T10:09:24.766Z,12.96
2023-03-21T10:12:14.808Z,12.75
2023-03-21T10:14:48.515Z,12.92
2023-03-21T10:17:41.291Z,12.95
2023-03-21T10:20:21.293Z,12.95
2023-03-21T10:22:51.817Z,12.70
2023-03-21T10:25:41.974Z,12.72
2023-03-21T10:28:17.659Z,12.66
2023-03-21T10:30:51.459Z,12.66
2023-03-21T10:33:27.623Z,12.90
2023-03-21T10:36:03.216Z,12.95
2023-03-21T10:38:31.317Z,13.11
2023-03-21T10:40:58.271Z,13.07
2023-03-21T10:43:30.004Z,13.06
2023-03-21T10:45:58.089Z,13.15
2023-03-21T10:48:26.142Z,13.34
2023-03-21T10:50:55.806Z,13.32
2023-03-21T10:53:33.238Z,13.24
2023-03-21T10:56:01.875Z,13.50
2023-03-21T10:58:34.754Z,13.53
2023-03-21T11:01:10.619Z,13.60
2023-03-21T11:03:43.751Z,13.73
2023-03-21T11:06:28.124Z,13.78
2023-03-21T11:09:01.124Z,13.87
2023-03-21T11:11:39.033Z,13.94
2023-03-21T11:14:20.889Z,14.22
2023-03-21T11:16:48.329Z,14.68
2023-03-21T11:19:29.084Z,14.91
2023-03-21T11:21:59.072Z,14.53
2023-03-21T11:24:31.063Z,15.00
2023-03-21T11:27:02.332Z,15.19
2023-03-21T11:29:42.673Z,15.11
2023-03-21T11:32:27.391Z,15.37
2023-03-21T11:35:18.303Z,15.03
2023-03-21T11:37:55.527Z,14.94
2023-03-21T11:40:37.262Z,15.28
2023-03-21T11:43:30.700Z,15.14
2023-03-21T11:46:14.955Z,15.20
2023-03-21T11:48:45.536Z,15.34
2023-03-21T11:51:53.660Z,15.40
2023-03-21T11:55:07.971Z,15.79
2023-03-21T11:58:05.371Z,15.66
2023-03-21T12:00:45.266Z,15.55
2023-03-21T12:03:45.341Z,15.74
2023-03-21T12:06:26.776Z,15.63
2023-03-21T12:08:58.113Z,16.00
2023-03-21T12:11:51.384Z,15.99
2023-03-21T12:14:48.074Z,15.55
2023-03-21T12:17:27.348Z,15.97
2023-03-21T12:20:37.136Z,16.20
2023-03-21T12:23:33.075Z,15.92
2023-03-21T12:27:14.430Z,15.98
2023-03-21T12:29:51.718Z,16.19
2023-03-21T12:32:25.941Z,15.87
2023-03-21T12:34:53.321Z,15.85
2023-03-21T12:37:55.493Z,16.00
2023-03-21T12:40:46.908Z,15.90
2023-03-21T12:43:20.855Z,15.96
2023-03-21T12:45:52.874Z,15.63
2023-03-21T12:48:37.673Z,15.84
2023-03-21T12:51:13.374Z,15.98
2023-03-21T12:53:59.813Z,16.10
2023-03-21T12:57:32.573Z,15.93
2023-03-21T13:00:17.717Z,15.55
2023-03-21T13:03:02.935Z,15.36
2023-03-21T13:05:35.951Z,15.35
2023-03-21T13:08:30.467Z,15.54
2023-03-21T13:11:00.817Z,15.34
2023-03-21T13:13:35.867Z,15.55
2023-03-21T13:16:21.166Z,15.37
2023-03-21T13:19:06.992Z,15.38
2023-03-21T13:22:04.360Z,15.25
2023-03-21T13:24:47.465Z,15.21
2023-03-21T13:27:39.566Z,15.15
2023-03-21T13:30:23.312Z,15.04
2023-03-21T13:32:56.810Z,14.93
2023-03-21T13:35:29.078Z,14.81
2023-03-21T13:38:04.199Z,14.77
2023-03-21T13:40:45.697Z,14.75
2023-03-21T13:44:15.089Z,14.59
2023-03-21T13:46:55.194Z,14.33
2023-03-21T13:49:38.272Z,14.36
2023-03-21T13:52:12.265Z,14.29
2023-03-21T13:54:51.290Z,14.23
2023-03-21T13:57:27.223Z,14.22
2023-03-21T14:00:30.231Z,14.06
2023-03-21T14:03:08.246Z,14.10
2023-03-21T14:05:37.901Z,14.04
2023-03-21T14:08:15.746Z,14.07
2023-03-21T14:11:00.562Z,14.09
2023-03-21T14:13:29.653Z,14.15
2023-03-21T14:16:12.801Z,14.13
2023-03-21T14:18:54.100Z,14.13
2023-03-21T14:21:26.467Z,13.98
2023-03-21T14:23:57.530Z,13.97
2023-03-21T14:26:25.729Z,13.94
2023-03-21T14:28:53.383Z,13.88
2023-03-21T14:31:21.939Z,13.72
2023-03-21T14:33:56.180Z,13.88
2023-03-21T14:36:30.366Z,13.85
2023-03-21T14:39:11.021Z,13.96
2023-03-21T14:41:53.570Z,14.09
2023-03-21T14:44:27.801Z,13.92
2023-03-21T14:47:09.073Z,13.77
2023-03-21T14:49:38.032Z,13.77
2023-03-21T14:52:16.678Z,13.74
2023-03-21T14:54:47.529Z,13.49
2023-03-21T14:57:22.385Z,13.40
2023-03-21T14:59:53.089Z,13.50
2023-03-21T15:02:34.105Z,13.73
2023-03-21T15:05:22.479Z,13.68
2023-03-21T15:08:21.458Z,13.59
2023-03-21T15:11:06.214Z,13.58
2023-03-21T15:13:56.186Z,13.64
2023-03-21T15:16:23.991Z,13.73
2023-03-21T15:18:52.176Z,13.71
2023-03-21T15:21:31.252Z,13.67
2023-03-21T15:24:05.927Z,13.65
2023-03-21T15:26:33.985Z,13.60
2023-03-21T15:29:02.369Z,13.51
2023-03-21T15:31:35.625Z,13.50
2023-03-21T15:34:04.364Z,13.53
2023-03-21T15:36:47.737Z,13.44
2023-03-21T15:39:18.287Z,13.41
2023-03-21T15:42:06.132Z,13.42
2023-03-21T15:44:35.396Z,13.44
2023-03-21T15:47:03.170Z,13.41
2023-03-21T15:49:34.722Z,13.43
2023-03-21T15:52:16.225Z,13.39
2023-03-21T15:54:56.952Z,13.44
2023-03-21T15:57:34.293Z,13.43
2023-03-21T16:00:18.412Z,13.41
2023-03-21T16:02:46.293Z,13.32
2023-03-21T16:05:30.693Z,13.36
2023-03-21T16:08:27.448Z,13.29
2023-03-21T16:10:54.866Z,13.26
2023-03-21T16:13:22.225Z,13.21
2023-03-21T16:15:49.188Z,13.24
2023-03-21T16:18:17.257Z,13.27
2023-03-21T16:20:46.953Z,13.23
2023-03-21T16:23:17.356Z,13.26
2023-03-21T16:25:44.983Z,13.24
2023-03-21T16:28:17.212Z,13.26
2023-03-21T16:30:45.528Z,13.29
2023-03-21T16:33:13.717Z,13.27
2023-03-21T16:35:41.585Z,13.18
2023-03-21T16:38:13.621Z,13.00
2023-03-21T16:40:43.955Z,12.98
2023-03-21T16:43:11.973Z,12.97
2023-03-21T16:45:39.608Z,12.86
2023-03-21T16:48:09.090Z,12.79
2023-03-21T16:50:42.362Z,12.76
2023-03-21T16:53:09.994Z,12.69
2023-03-21T16:55:37.846Z,12.72
2023-03-21T16:58:05.980Z,12.75
2023-03-21T17:00:33.171Z,12.60
2023-03-21T17:03:06.210Z,12.58
2023-03-21T17:05:33.983Z,12.60
2023-03-21T17:08:02.911Z,12.50
2023-03-21T17:10:32.280Z,12.53
2023-03-21T17:12:59.554Z,12.49
2023-03-21T17:15:26.950Z,12.46
2023-03-21T17:17:55.896Z,12.45
2023-03-21T17:20:33.510Z,12.40
2023-03-21T17:23:01.302Z,12.34
2023-03-21T17:25:28.791Z,12.28
2023-03-21T17:27:56.455Z,12.33
2023-03-21T17:30:31.218Z,12.33
2023-03-21T17:32:59.034Z,12.23
2023-03-21T17:35:27.121Z,12.24
2023-03-21T17:37:58.319Z,12.16
2023-03-21T17:40:30.368Z,12.22
2023-03-21T17:42:59.664Z,12.15
2023-03-21T17:45:27.118Z,12.20
2023-03-21T17:47:55.095Z,12.17
2023-03-21T17:50:26.416Z,12.14
2023-03-21T17:52:57.421Z,12.15
2023-03-21T17:55:24.971Z,12.04
2023-03-21T17:57:52.492Z,11.87
2023-03-21T18:00:26.393Z,11.85
2023-03-21T18:02:53.918Z,11.93
2023-03-21T18:05:22.099Z,11.94
2023-03-21T18:10:38.082Z,11.85
2023-03-21T18:13:05.786Z,11.90
2023-03-21T18:15:33.189Z,11.77
2023-03-21T18:18:00.641Z,11.64
2023-03-21T18:20:49.883Z,11.72
2023-03-21T18:23:18.811Z,11.57
2023-03-21T18:25:46.538Z,11.52
2023-03-21T18:28:14.159Z,11.25
2023-03-21T18:33:30.053Z,11.23
2023-03-21T18:35:59.621Z,11.30
2023-03-21T18:38:28.561Z,11.12
2023-03-21T18:40:56.505Z,11.16
2023-03-21T18:46:12.756Z,11.12
2023-03-21T18:48:40.494Z,10.88
2023-03-21T18:51:09.658Z,10.86
2023-03-21T18:53:37.398Z,10.94
2023-03-21T18:56:09.783Z,10.98
2023-03-21T18:58:38.686Z,10.58
2023-03-21T19:01:06.580Z,10.63
2023-03-21T19:03:37.002Z,10.61
2023-03-21T19:06:06.557Z,10.59
2023-03-21T19:08:38.764Z,10.50
2023-03-21T19:11:07.105Z,10.51
2023-03-21T19:13:35.060Z,10.57
2023-03-21T19:16:03.148Z,10.67
2023-03-21T19:21:41.469Z,10.48
2023-03-21T19:24:26.421Z,10.42
2023-03-21T19:26:54.781Z,10.31
2023-03-21T19:29:22.305Z,10.46
2023-03-21T19:31:51.333Z,10.55
2023-03-21T19:34:19.517Z,10.56
2023-03-21T19:36:51.463Z,10.47
2023-03-21T19:39:22.665Z,10.69
2023-03-21T19:41:51.237Z,10.76
2023-03-21T19:44:19.754Z,10.65
2023-03-21T19:46:48.529Z,10.69
2023-03-21T19:49:21.952Z,10.60
2023-03-21T19:51:49.975Z,10.47
2023-03-21T19:54:18.236Z,10.43
2023-03-21T19:56:47.942Z,10.44
2023-03-21T19:59:16.177Z,10.43
2023-03-21T20:01:44.568Z,10.43
2023-03-21T20:04:12.815Z,10.45
2023-03-21T20:06:40.546Z,10.38
2023-03-21T20:12:10.589Z,10.41
2023-03-21T20:14:38.082Z,10.35
2023-03-21T20:17:05.826Z,10.25
2023-03-21T20:19:33.408Z,10.25
2023-03-21T20:22:02.854Z,10.31
2023-03-21T20:24:30.562Z,10.32
2023-03-21T20:26:58.213Z,10.25
2023-03-21T20:32:13.492Z,10.22
2023-03-21T20:34:40.777Z,10.30
2023-03-21T20:37:08.725Z,10.22
2023-03-21T20:39:36.430Z,10.18
2023-03-21T20:42:05.412Z,10.15
2023-03-21T20:44:58.389Z,10.19
2023-03-21T20:47:20.870Z,10.22
2023-03-21T20:49:49.417Z,10.47
2023-03-21T20:55:06.942Z,10.30
2023-03-21T20:57:56.723Z,10.10
2023-03-21T21:00:24.732Z,10.02
2023-03-21T21:02:52.308Z,9.86
2023-03-21T21:05:35.474Z,9.81
2023-03-21T21:08:04.291Z,9.95
2023-03-21T21:10:53.758Z,9.92
2023-03-21T21:13:24.863Z,9.69
2023-03-21T21:15:54.385Z,9.74
2023-03-21T21:18:22.230Z,9.67
2023-03-21T21:21:02.070Z,9.53
2023-03-21T21:23:29.590Z,9.64
2023-03-21T21:25:58.248Z,9.02
2023-03-21T21:28:28.964Z,9.03
2023-03-21T21:30:59.004Z,9.12
2023-03-21T21:33:29.316Z,8.31
2023-03-21T21:36:16.048Z,8.72
2023-03-21T21:38:43.705Z,8.65
2023-03-21T21:41:22.364Z,8.57
2023-03-21T21:43:49.853Z,8.64
2023-03-21T21:46:17.353Z,8.74
2023-03-21T21:48:44.841Z,8.82
2023-03-21T21:51:12.351Z,8.82
2023-03-21T21:53:41.070Z,8.70
2023-03-21T21:56:09.118Z,8.61
2023-03-21T21:58:46.184Z,8.74
2023-03-21T22:01:16.479Z,8.83
2023-03-21T22:03:46.187Z,9.45
2023-03-21T22:06:14.315Z,9.49
2023-03-21T22:08:47.533Z,9.90
2023-03-21T22:11:16.265Z,9.59
2023-03-21T22:13:44.197Z,9.57
2023-03-21T22:16:12.242Z,9.41
2023-03-21T22:18:39.840Z,9.45
2023-03-21T22:21:08.077Z,9.92
2023-03-21T22:23:36.225Z,10.10
2023-03-21T22:26:03.750Z,9.87
2023-03-21T22:28:31.569Z,10.03
2023-03-21T22:30:59.158Z,9.99
2023-03-21T22:33:27.604Z,9.96
2023-03-21T22:35:55.396Z,10.01
2023-03-21T22:38:28.266Z,9.85
2023-03-21T22:41:01.518Z,10.12
2023-03-21T22:43:29.578Z,10.00
2023-03-21T22:45:59.339Z,10.35
2023-03-21T22:48:30.293Z,10.47
2023-03-21T22:50:58.941Z,10.63
2023-03-21T22:53:26.457Z,10.34
2023-03-21T22:55:53.654Z,10.38
2023-03-21T22:58:21.407Z,10.48
2023-03-21T23:00:48.956Z,10.48
2023-03-21T23:03:17.086Z,10.89
2023-03-21T23:05:45.724Z,10.88
2023-03-21T23:08:13.362Z,10.75
2023-03-21T23:10:43.721Z,10.39
2023-03-21T23:13:11.770Z,10.30
2023-03-21T23:15:39.933Z,10.30
2023-03-21T23:18:07.368Z,10.06
2023-03-21T23:20:34.843Z,9.83
2023-03-21T23:23:02.396Z,9.60
2023-03-21T23:25:30.539Z,9.39
2023-03-21T23:27:58.238Z,9.28
2023-03-21T23:30:26.016Z,9.22
2023-03-21T23:32:53.418Z,9.32
2023-03-21T23:35:21.114Z,8.99
2023-03-21T23:37:52.513Z,9.40
2023-03-21T23:40:21.264Z,9.40
2023-03-21T23:42:48.743Z,9.36
2023-03-21T23:45:16.367Z,9.33
2023-03-21T23:47:43.862Z,9.25
2023-03-21T23:50:11.943Z,9.15
2023-03-21T23:52:41.694Z,9.24
2023-03-21T23:55:09.666Z,9.27
2023-03-21T23:57:41.830Z,9.28
